createdAt,value
2023-04-23T00:01:20.697Z,3.20
2023-04-23T00:03:50.973Z,2.92
2023-04-23T00:06:19.177Z,2.47
2023-04-23T00:08:48.983Z,2.97
2023-04-23T00:11:17.900Z,4.93
2023-04-23T00:13:47.496Z,3.45
2023-04-23T00:16:17.817Z,2.20
2023-04-23T00:18:46.782Z,4.18
2023-04-23T00:21:15.182Z,1.98
2023-04-23T00:23:43.136Z,1.98
2023-04-23T00:26:11.909Z,2.97
2023-04-23T00:28:39.916Z,2.55
2023-04-23T00:31:08.033Z,3.15
2023-04-23T00:33:39.940Z,5.43
2023-04-23T00:36:08.673Z,2.15
2023-04-23T00:38:37.400Z,3.38
2023-04-23T00:41:06.115Z,3.70
2023-04-23T00:43:34.836Z,2.40
2023-04-23T00:46:02.919Z,3.38
2023-04-23T00:48:31.281Z,2.80
2023-04-23T00:51:04.282Z,3.05
2023-04-23T00:53:32.372Z,3.65
2023-04-23T00:56:02.908Z,3.10
2023-04-23T00:58:30.958Z,2.28
2023-04-23T01:00:59.886Z,2.28
2023-04-23T01:03:29.816Z,3.47
2023-04-23T01:05:58.409Z,4.83
2023-04-23T01:08:32.615Z,4.03
2023-04-23T01:11:01.531Z,3.45
2023-04-23T01:13:30.340Z,3.60
2023-04-23T01:15:58.626Z,2.63
2023-04-23T01:18:28.162Z,2.67
2023-04-23T01:20:56.535Z,1.77
2023-04-23T01:23:27.203Z,3.57
2023-04-23T01:25:55.523Z,2.53
2023-04-23T01:28:23.542Z,2.78
2023-04-23T01:30:52.834Z,2.00
2023-04-23T01:33:21.203Z,3.08
2023-04-23T01:35:51.274Z,2.57
2023-04-23T01:38:21.545Z,3.83
2023-04-23T01:40:50.871Z,1.80
2023-04-23T01:43:18.968Z,2.83
2023-04-23T01:45:47.396Z,3.33
2023-04-23T01:48:15.896Z,3.03
2023-04-23T01:50:44.927Z,4.33
2023-04-23T01:53:12.866Z,2.53
2023-04-23T01:55:41.411Z,2.63
2023-04-23T01:58:10.703Z,2.60
2023-04-23T02:00:38.713Z,2.17
2023-04-23T02:03:07.160Z,2.27
2023-04-23T02:05:36.967Z,3.13
2023-04-23T02:08:05.429Z,2.83
2023-04-23T02:10:33.561Z,2.87
2023-04-23T02:13:02.714Z,1.80
2023-04-23T02:15:32.564Z,4.07
2023-04-23T02:18:01.863Z,2.47
2023-04-23T02:20:29.755Z,2.97
2023-04-23T02:22:57.756Z,2.13
2023-04-23T02:25:27.819Z,3.17
2023-04-23T02:27:57.626Z,2.40
2023-04-23T02:30:25.762Z,2.20
2023-04-23T02:32:55.631Z,2.90
2023-04-23T02:35:23.970Z,2.87
2023-04-23T02:37:52.232Z,1.47
2023-04-23T02:40:20.371Z,2.90
2023-04-23T02:42:48.297Z,2.80
2023-04-23T02:45:16.383Z,3.33
2023-04-23T02:47:45.169Z,2.40
2023-04-23T02:50:14.630Z,3.90
2023-04-23T02:52:42.545Z,3.60
2023-04-23T02:55:12.151Z,4.40
2023-04-23T02:57:40.982Z,2.23
2023-04-23T03:00:12.358Z,3.17
2023-04-23T03:02:43.596Z,2.13
2023-04-23T03:05:15.606Z,2.00
2023-04-23T03:07:43.736Z,2.67
2023-04-23T03:10:12.165Z,1.83
2023-04-23T03:12:40.283Z,2.37
2023-04-23T03:15:08.951Z,3.80
2023-04-23T03:17:38.478Z,2.60
2023-04-23T03:20:10.997Z,3.40
2023-04-23T03:22:41.370Z,2.73
2023-04-23T03:25:10.333Z,3.53
2023-04-23T03:27:40.387Z,3.67
2023-04-23T03:30:09.997Z,4.33
2023-04-23T03:32:38.350Z,3.00
2023-04-23T03:35:07.113Z,4.23
2023-04-23T03:37:35.169Z,2.50
2023-04-23T03:40:07.807Z,3.27
2023-04-23T03:42:39.414Z,2.27
2023-04-23T03:45:09.454Z,3.93
2023-04-23T03:47:37.713Z,4.00
2023-04-23T03:50:07.128Z,1.93
2023-04-23T03:52:35.622Z,2.57
2023-04-23T03:55:05.370Z,2.77
2023-04-23T03:57:40.405Z,2.87
2023-04-23T04:00:41.103Z,1.70
2023-04-23T04:03:10.257Z,1.90
2023-04-23T04:05:40.654Z,2.10
2023-04-23T04:08:10.476Z,3.40
2023-04-23T04:10:40.921Z,2.03
2023-04-23T04:13:08.922Z,2.67
2023-04-23T04:15:36.927Z,2.07
2023-04-23T04:18:04.879Z,2.43
2023-04-23T04:20:32.701Z,2.03
2023-04-23T04:23:00.722Z,2.27
2023-04-23T04:25:30.950Z,2.47
2023-04-23T04:28:00.453Z,2.43
2023-04-23T04:30:28.343Z,2.23
2023-04-23T04:32:56.305Z,2.20
2023-04-23T04:35:24.425Z,2.17
2023-04-23T04:37:54.863Z,2.57
2023-04-23T04:40:22.991Z,1.90
2023-04-23T04:42:51.464Z,2.17
2023-04-23T04:45:20.950Z,2.53
2023-04-23T04:47:48.873Z,2.17
2023-04-23T04:50:17.063Z,2.23
2023-04-23T04:52:45.043Z,3.20
2023-04-23T04:55:12.935Z,2.20
2023-04-23T04:57:40.871Z,4.07
2023-04-23T05:00:24.657Z,3.30
2023-04-23T05:02:53.156Z,1.13
2023-04-23T05:05:25.036Z,3.60
2023-04-23T05:07:54.291Z,2.57
2023-04-23T05:10:22.710Z,1.60
2023-04-23T05:12:51.911Z,2.00
2023-04-23T05:15:20.118Z,2.37
2023-04-23T05:17:50.337Z,1.70
2023-04-23T05:20:21.149Z,1.47
2023-04-23T05:22:49.175Z,1.60
2023-04-23T05:25:17.288Z,2.00
2023-04-23T05:27:45.304Z,1.83
2023-04-23T05:30:13.489Z,1.67
2023-04-23T05:32:41.604Z,1.43
2023-04-23T05:35:11.156Z,1.47
2023-04-23T05:37:40.167Z,1.30
2023-04-23T05:40:11.442Z,2.10
2023-04-23T05:42:39.538Z,1.40
2023-04-23T05:45:09.312Z,2.67
2023-04-23T05:47:37.843Z,1.50
2023-04-23T05:50:07.109Z,1.50
2023-04-23T05:52:37.345Z,2.07
2023-04-23T05:55:09.921Z,1.45
2023-04-23T05:57:38.714Z,1.48
2023-04-23T06:00:11.209Z,1.65
2023-04-23T06:02:43.151Z,1.63
2023-04-23T06:05:12.101Z,1.30
2023-04-23T06:07:41.705Z,1.30
2023-04-23T06:10:10.891Z,1.60
2023-04-23T06:12:39.938Z,1.08
2023-04-23T06:15:09.320Z,2.35
2023-04-23T06:17:37.803Z,2.20
2023-04-23T06:20:07.323Z,1.30
2023-04-23T06:22:35.590Z,1.87
2023-04-23T06:25:05.592Z,1.40
2023-04-23T06:27:33.884Z,1.10
2023-04-23T06:30:09.509Z,1.97
2023-04-23T06:32:37.519Z,1.25
2023-04-23T06:35:06.264Z,1.33
2023-04-23T06:37:34.302Z,1.10
2023-04-23T06:40:02.390Z,3.43
2023-04-23T06:42:31.795Z,1.37
2023-04-23T06:45:15.659Z,1.20
2023-04-23T06:47:43.723Z,1.63
2023-04-23T06:50:12.046Z,1.63
2023-04-23T06:52:40.288Z,0.93
2023-04-23T06:55:10.116Z,1.70
2023-04-23T06:57:41.428Z,1.10
2023-04-23T07:00:11.872Z,1.10
2023-04-23T07:02:42.833Z,1.50
2023-04-23T07:05:12.367Z,1.10
2023-04-23T07:07:43.548Z,1.88
2023-04-23T07:10:16.291Z,1.35
2023-04-23T07:12:47.199Z,2.67
2023-04-23T07:15:15.909Z,1.27
2023-04-23T07:17:43.991Z,2.00
2023-04-23T07:20:12.581Z,3.07
2023-04-23T07:22:40.807Z,1.25
2023-04-23T07:25:09.792Z,1.40
2023-04-23T07:27:37.978Z,1.00
2023-04-23T07:30:10.455Z,0.70
2023-04-23T07:32:41.321Z,2.15
2023-04-23T07:35:12.067Z,1.07
2023-04-23T07:37:40.123Z,1.10
2023-04-23T07:40:10.563Z,1.17
2023-04-23T07:42:39.479Z,0.95
2023-04-23T07:45:12.739Z,1.17
2023-04-23T07:47:41.105Z,0.90
2023-04-23T07:50:10.039Z,1.02
2023-04-23T07:52:38.120Z,1.05
2023-04-23T07:55:07.501Z,0.98
2023-04-23T07:57:35.378Z,1.60
2023-04-23T08:00:03.505Z,1.60
2023-04-23T08:02:41.520Z,0.75
2023-04-23T08:05:10.747Z,0.85
2023-04-23T08:07:39.572Z,0.95
2023-04-23T08:10:08.783Z,0.80
2023-04-23T08:12:36.835Z,1.38
2023-04-23T08:15:05.463Z,1.23
2023-04-23T08:17:41.870Z,1.08
2023-04-23T08:20:10.463Z,1.50
2023-04-23T08:22:38.472Z,1.20
2023-04-23T08:25:07.554Z,1.10
2023-04-23T08:27:42.703Z,2.35
2023-04-23T08:30:22.099Z,2.70
2023-04-23T08:32:54.724Z,1.52
2023-04-23T08:35:23.651Z,1.38
2023-04-23T08:37:52.342Z,1.30
2023-04-23T08:40:21.351Z,1.58
2023-04-23T08:43:03.347Z,1.05
2023-04-23T08:45:32.053Z,1.63
2023-04-23T08:48:03.191Z,1.52
2023-04-23T08:50:32.004Z,2.92
2023-04-23T08:53:01.498Z,1.10
2023-04-23T08:55:29.947Z,1.10
2023-04-23T08:58:00.388Z,1.20
2023-04-23T09:00:32.105Z,1.13
2023-04-23T09:03:02.634Z,1.27
2023-04-23T09:05:34.051Z,1.10
2023-04-23T09:08:02.338Z,1.30
2023-04-23T09:10:35.518Z,1.20
2023-04-23T09:13:03.935Z,1.75
2023-04-23T09:15:31.924Z,2.15
2023-04-23T09:18:02.866Z,1.95
2023-04-23T09:20:30.920Z,1.20
2023-04-23T09:22:58.861Z,1.23
2023-04-23T09:25:27.412Z,1.10
2023-04-23T09:27:55.503Z,2.03
2023-04-23T09:30:25.792Z,1.30
2023-04-23T09:32:54.149Z,1.35
2023-04-23T09:35:30.100Z,1.23
2023-04-23T09:37:58.456Z,1.20
2023-04-23T09:40:28.957Z,1.67
2023-04-23T09:42:57.090Z,1.90
2023-04-23T09:45:26.168Z,1.50
2023-04-23T09:47:55.592Z,1.90
2023-04-23T09:50:33.772Z,1.45
2023-04-23T09:53:03.452Z,1.17
2023-04-23T09:55:37.830Z,1.20
2023-04-23T09:58:07.131Z,1.40
2023-04-23T10:00:37.628Z,2.53
2023-04-23T10:03:09.040Z,2.33
2023-04-23T10:08:14.632Z,1.70
2023-04-23T10:10:57.393Z,0.90
2023-04-23T10:13:31.296Z,1.17
2023-04-23T10:16:18.075Z,1.35
2023-04-23T10:18:49.883Z,0.70
2023-04-23T10:21:21.653Z,1.65
2023-04-23T10:23:52.975Z,1.10
2023-04-23T10:26:24.969Z,0.77
2023-04-23T10:28:55.867Z,1.20
2023-04-23T10:31:24.723Z,2.22
2023-04-23T10:33:59.399Z,4.03
2023-04-23T10:36:30.285Z,0.85
2023-04-23T10:39:04.083Z,1.00
2023-04-23T10:41:39.374Z,1.48
2023-04-23T10:44:15.947Z,1.33
2023-04-23T10:46:55.230Z,1.50
2023-04-23T10:49:25.204Z,0.90
2023-04-23T10:54:36.768Z,1.80
2023-04-23T10:57:07.269Z,1.00
2023-04-23T10:59:37.140Z,0.93
2023-04-23T11:02:11.062Z,1.20
2023-04-23T11:04:46.025Z,1.42
2023-04-23T11:07:16.713Z,1.40
2023-04-23T11:09:47.709Z,1.50
2023-04-23T11:12:33.982Z,1.20
2023-04-23T11:15:12.360Z,0.97
2023-04-23T11:18:02.203Z,2.03
2023-04-23T11:20:31.148Z,0.73
2023-04-23T11:23:01.192Z,0.90
2023-04-23T11:25:30.404Z,2.30
2023-04-23T11:27:59.610Z,3.22
2023-04-23T11:30:29.313Z,1.00
2023-04-23T11:32:59.999Z,1.50
2023-04-23T11:35:30.086Z,0.82
2023-04-23T11:37:58.069Z,1.83
2023-04-23T11:40:30.885Z,1.35
2023-04-23T11:42:59.142Z,2.00
2023-04-23T11:45:29.106Z,1.87
2023-04-23T11:47:58.924Z,2.80
2023-04-23T11:50:29.692Z,1.20
2023-04-23T11:52:58.626Z,1.00
2023-04-23T11:55:30.558Z,0.80
2023-04-23T11:57:59.350Z,2.10
2023-04-23T12:00:28.458Z,1.15
2023-04-23T12:02:58.993Z,1.10
2023-04-23T12:05:30.937Z,1.00
2023-04-23T12:08:08.893Z,0.70
2023-04-23T12:10:46.948Z,1.35
2023-04-23T12:13:15.899Z,0.77
2023-04-23T12:15:51.358Z,1.20
2023-04-23T12:19:15.587Z,1.00
2023-04-23T12:22:35.060Z,1.43
2023-04-23T12:25:18.183Z,0.95
2023-04-23T12:28:17.658Z,1.10
2023-04-23T12:30:48.188Z,1.00
2023-04-23T12:33:16.999Z,1.15
2023-04-23T12:35:46.778Z,1.27
2023-04-23T12:38:25.246Z,1.83
2023-04-23T12:40:54.816Z,1.73
2023-04-23T12:43:24.551Z,1.10
2023-04-23T12:45:52.511Z,2.63
2023-04-23T12:48:20.574Z,1.27
2023-04-23T12:50:51.338Z,0.98
2023-04-23T12:53:21.794Z,1.20
2023-04-23T12:55:50.257Z,1.48
2023-04-23T12:58:18.253Z,1.63
2023-04-23T13:00:47.644Z,0.85
2023-04-23T13:03:17.472Z,0.90
2023-04-23T13:05:45.464Z,0.90
2023-04-23T13:08:13.574Z,1.53
2023-04-23T13:10:41.617Z,1.73
2023-04-23T13:13:09.575Z,1.15
2023-04-23T13:15:37.744Z,2.57
2023-04-23T13:18:07.507Z,1.40
2023-04-23T13:20:35.494Z,1.10
2023-04-23T13:23:03.865Z,1.45
2023-04-23T13:25:34.260Z,1.30
2023-04-23T13:28:02.251Z,1.48
2023-04-23T13:30:30.317Z,1.30
2023-04-23T13:32:59.293Z,0.80
2023-04-23T13:35:28.786Z,2.00
2023-04-23T13:37:56.884Z,0.90
2023-04-23T13:40:27.397Z,1.50
2023-04-23T13:42:55.584Z,1.17
2023-04-23T13:45:23.557Z,1.30
2023-04-23T13:47:51.998Z,1.70
2023-04-23T13:50:20.039Z,2.23
2023-04-23T13:52:49.338Z,1.50
2023-04-23T13:55:17.356Z,1.10
2023-04-23T13:57:45.854Z,1.35
2023-04-23T14:00:15.002Z,1.45
2023-04-23T14:02:43.065Z,1.00
2023-04-23T14:05:11.234Z,1.23
2023-04-23T14:07:39.170Z,1.10
2023-04-23T14:10:09.689Z,2.03
2023-04-23T14:12:38.957Z,2.42
2023-04-23T14:15:08.560Z,1.90
2023-04-23T14:17:37.213Z,1.38
2023-04-23T14:20:06.545Z,1.42
2023-04-23T14:22:34.554Z,0.98
2023-04-23T14:25:04.351Z,1.37
2023-04-23T14:27:42.038Z,0.70
2023-04-23T14:30:17.052Z,1.05
2023-04-23T14:32:48.442Z,1.02
2023-04-23T14:35:26.770Z,1.85
2023-04-23T14:38:19.394Z,1.88
2023-04-23T14:40:47.311Z,1.48
2023-04-23T14:43:16.935Z,2.37
2023-04-23T14:45:45.395Z,1.67
2023-04-23T14:48:13.550Z,1.98
2023-04-23T14:50:41.577Z,1.27
2023-04-23T14:53:11.232Z,0.95
2023-04-23T14:55:42.871Z,1.97
2023-04-23T14:58:11.156Z,3.08
2023-04-23T15:00:42.640Z,1.80
2023-04-23T15:03:11.464Z,1.70
2023-04-23T15:05:41.683Z,1.60
2023-04-23T15:08:09.697Z,1.73
2023-04-23T15:10:37.971Z,1.30
2023-04-23T15:13:30.389Z,1.95
2023-04-23T15:16:05.740Z,1.20
2023-04-23T15:18:36.112Z,1.50
2023-04-23T15:21:11.608Z,1.90
2023-04-23T15:24:19.495Z,1.45
2023-04-23T15:27:00.763Z,1.80
2023-04-23T15:30:05.166Z,2.20
2023-04-23T15:33:16.231Z,1.70
2023-04-23T15:36:00.779Z,1.55
2023-04-23T15:38:31.035Z,1.65
2023-04-23T15:41:00.471Z,1.90
2023-04-23T15:43:55.470Z,2.15
2023-04-23T15:46:53.472Z,2.83
2023-04-23T15:49:43.400Z,1.73
2023-04-23T15:52:21.202Z,2.03
2023-04-23T15:55:06.839Z,1.60
2023-04-23T15:58:04.149Z,1.50
2023-04-23T16:00:53.737Z,1.43
2023-04-23T16:03:28.560Z,1.43
2023-04-23T16:06:36.980Z,2.92
2023-04-23T16:09:48.431Z,1.70
2023-04-23T16:12:48.920Z,2.13
2023-04-23T16:15:17.909Z,2.38
2023-04-23T16:17:47.140Z,1.95
2023-04-23T16:20:16.226Z,2.00
2023-04-23T16:23:04.281Z,1.90
2023-04-23T16:25:39.149Z,2.53
2023-04-23T16:28:13.229Z,3.00
2023-04-23T16:30:48.485Z,3.05
2023-04-23T16:33:51.952Z,2.20
2023-04-23T16:36:42.807Z,2.80
2023-04-23T16:39:13.469Z,3.00
2023-04-23T16:41:42.125Z,2.78
2023-04-23T16:44:11.709Z,3.28
2023-04-23T16:46:57.947Z,3.70
2023-04-23T16:49:26.702Z,1.35
2023-04-23T16:51:57.633Z,1.35
2023-04-23T16:54:27.357Z,0.68
2023-04-23T16:56:55.478Z,0.98
2023-04-23T16:59:24.785Z,0.55
2023-04-23T17:01:54.604Z,0.90
2023-04-23T17:04:24.924Z,1.00
2023-04-23T17:06:55.312Z,0.93
2023-04-23T17:09:23.365Z,1.70
2023-04-23T17:11:52.774Z,2.20
2023-04-23T17:14:20.749Z,2.95
2023-04-23T17:16:48.735Z,1.70
2023-04-23T17:19:19.130Z,2.90
2023-04-23T17:21:49.832Z,2.28
2023-04-23T17:24:18.210Z,2.53
2023-04-23T17:26:47.620Z,2.28
2023-04-23T17:29:17.036Z,3.90
2023-04-23T17:31:46.511Z,2.67
2023-04-23T17:34:14.846Z,1.80
2023-04-23T17:36:42.920Z,1.83
2023-04-23T17:39:15.287Z,1.38
2023-04-23T17:41:44.393Z,2.22
2023-04-23T17:44:17.369Z,3.42
2023-04-23T17:46:54.744Z,3.10
2023-04-23T17:49:27.044Z,3.60
2023-04-23T17:51:58.843Z,2.30
2023-04-23T17:54:26.989Z,1.65
2023-04-23T17:56:56.106Z,2.97
2023-04-23T17:59:27.675Z,1.70
2023-04-23T18:01:59.055Z,2.27
2023-04-23T18:04:29.107Z,2.92
2023-04-23T18:06:57.600Z,1.65
2023-04-23T18:09:27.833Z,2.53
2023-04-23T18:12:05.687Z,2.83
2023-04-23T18:14:36.116Z,2.70
2023-04-23T18:17:08.123Z,1.85
2023-04-23T18:19:37.378Z,3.47
2023-04-23T18:22:14.294Z,2.30
2023-04-23T18:25:02.057Z,1.70
2023-04-23T18:27:35.765Z,2.63
2023-04-23T18:30:09.587Z,3.35
2023-04-23T18:32:43.696Z,3.30
2023-04-23T18:35:23.174Z,4.70
2023-04-23T18:38:02.624Z,3.58
2023-04-23T18:40:31.453Z,6.28
2023-04-23T18:43:00.132Z,4.43
2023-04-23T18:45:31.101Z,4.72
2023-04-23T18:48:19.563Z,3.67
2023-04-23T18:50:51.126Z,3.70
2023-04-23T18:53:21.582Z,4.07
2023-04-23T18:55:50.527Z,5.05
2023-04-23T18:58:18.721Z,4.43
2023-04-23T19:00:48.480Z,4.38
2023-04-23T19:03:26.141Z,3.58
2023-04-23T19:05:56.267Z,3.15
2023-04-23T19:08:28.659Z,3.40
2023-04-23T19:10:57.185Z,2.78
2023-04-23T19:13:25.557Z,4.13
2023-04-23T19:15:55.339Z,3.60
2023-04-23T19:18:24.189Z,3.65
2023-04-23T19:20:52.594Z,3.35
2023-04-23T19:23:21.485Z,1.90
2023-04-23T19:25:49.858Z,1.80
2023-04-23T19:28:18.103Z,1.30
2023-04-23T19:30:46.965Z,1.65
2023-04-23T19:33:16.782Z,1.50
2023-04-23T19:35:44.972Z,1.23
2023-04-23T19:38:13.488Z,2.47
2023-04-23T19:40:42.812Z,1.27
2023-04-23T19:43:12.785Z,1.80
2023-04-23T19:45:41.117Z,1.92
2023-04-23T19:48:09.258Z,1.77
2023-04-23T19:50:38.825Z,3.20
2023-04-23T19:53:07.108Z,1.20
2023-04-23T19:55:36.263Z,1.73
2023-04-23T19:58:06.511Z,1.38
2023-04-23T20:00:37.703Z,2.00
2023-04-23T20:03:06.986Z,1.70
2023-04-23T20:05:36.089Z,1.80
2023-04-23T20:08:11.744Z,1.60
2023-04-23T20:10:39.998Z,1.20
2023-04-23T20:13:08.548Z,1.88
2023-04-23T20:15:37.022Z,1.77
2023-04-23T20:18:05.631Z,1.90
2023-04-23T20:20:36.611Z,2.13
2023-04-23T20:23:06.580Z,1.27
2023-04-23T20:25:36.371Z,1.35
2023-04-23T20:28:05.222Z,1.65
2023-04-23T20:30:33.571Z,2.10
2023-04-23T20:33:01.858Z,1.85
2023-04-23T20:35:30.789Z,1.05
2023-04-23T20:38:01.382Z,0.77
2023-04-23T20:40:34.628Z,1.60
2023-04-23T20:43:04.654Z,1.35
2023-04-23T20:45:34.584Z,1.02
2023-04-23T20:48:03.741Z,1.43
2023-04-23T20:50:32.813Z,1.40
2023-04-23T20:53:02.533Z,1.13
2023-04-23T20:55:33.785Z,1.30
2023-04-23T20:58:04.509Z,1.20
2023-04-23T21:00:35.019Z,0.82
2023-04-23T21:03:03.582Z,1.27
2023-04-23T21:05:34.636Z,2.50
2023-04-23T21:08:03.046Z,1.10
2023-04-23T21:10:31.269Z,1.30
2023-04-23T21:13:01.191Z,1.10
2023-04-23T21:15:34.106Z,1.00
2023-04-23T21:18:03.168Z,1.38
2023-04-23T21:20:33.800Z,1.00
2023-04-23T21:23:02.504Z,1.10
2023-04-23T21:25:35.407Z,0.95
2023-04-23T21:28:05.875Z,1.20
2023-04-23T21:30:46.102Z,1.02
2023-04-23T21:33:15.213Z,1.20
2023-04-23T21:35:44.412Z,1.45
2023-04-23T21:38:15.926Z,1.35
2023-04-23T21:40:45.240Z,1.30
2023-04-23T21:43:16.485Z,1.13
2023-04-23T21:45:45.049Z,1.10
2023-04-23T21:48:13.410Z,1.50
2023-04-23T21:50:42.193Z,1.00
2023-04-23T21:53:13.317Z,1.40
2023-04-23T21:55:42.443Z,1.63
2023-04-23T21:58:17.124Z,0.77
2023-04-23T22:00:49.006Z,1.27
2023-04-23T22:03:26.159Z,0.90
2023-04-23T22:06:09.452Z,1.15
2023-04-23T22:08:40.303Z,1.15
2023-04-23T22:11:09.025Z,0.73
2023-04-23T22:13:37.653Z,1.03
2023-04-23T22:16:20.326Z,0.90
2023-04-23T22:18:53.664Z,1.10
2023-04-23T22:21:22.044Z,1.10
2023-04-23T22:23:51.095Z,1.40
2023-04-23T22:26:19.906Z,1.30
2023-04-23T22:28:47.848Z,2.40
2023-04-23T22:31:19.018Z,0.82
2023-04-23T22:33:53.228Z,1.13
2023-04-23T22:36:21.444Z,1.58
2023-04-23T22:38:49.659Z,1.27
2023-04-23T22:41:17.622Z,0.90
2023-04-23T22:43:46.449Z,1.87
2023-04-23T22:46:14.712Z,0.90
2023-04-23T22:48:47.759Z,2.23
2023-04-23T22:51:15.723Z,1.45
2023-04-23T22:53:44.366Z,1.55
2023-04-23T22:56:15.133Z,1.10
2023-04-23T22:58:43.050Z,1.07
2023-04-23T23:01:11.051Z,1.85
2023-04-23T23:03:39.482Z,1.20
2023-04-23T23:06:09.173Z,1.40
2023-04-23T23:08:37.135Z,1.42
2023-04-23T23:11:05.313Z,1.45
2023-04-23T23:13:33.291Z,2.10
2023-04-23T23:16:05.032Z,0.93
2023-04-23T23:18:33.826Z,1.02
2023-04-23T23:21:02.059Z,1.60
2023-04-23T23:23:31.791Z,1.75
2023-04-23T23:26:00.366Z,2.00
2023-04-23T23:28:28.673Z,0.90
2023-04-23T23:30:58.084Z,2.60
2023-04-23T23:33:27.186Z,1.40
2023-04-23T23:35:56.219Z,1.48
2023-04-23T23:38:25.295Z,1.48
2023-04-23T23:40:54.692Z,1.30
2023-04-23T23:43:23.007Z,1.88
2023-04-23T23:45:51.845Z,1.50
2023-04-23T23:48:20.332Z,1.20
2023-04-23T23:50:48.400Z,0.97
2023-04-23T23:53:16.389Z,0.90
2023-04-23T23:55:45.008Z,0.83
2023-04-23T23:58:14.731Z,1.13
